Time;durP1;ratioP1;P1;durP2;ratioP2;P2;SDS_P1;SDS_P2;PMS_P1;PMS_P2;Temp;Humidity;BMP_temperature;BMP_pressure;BME280_temperature;BME280_humidity;BME280_pressure;Samples;Min_cycle;Max_cycle;Signal;HPM_P1;HPM_P2
2024/01/25 00:00:55;;;;;;;23.50;4.53;;;8.70;99.90;;;;;;5064931;28;20120;-72
2024/01/25 00:03:20;;;;;;;39.80;5.43;;;8.70;99.90;;;;;;5065392;28;20021;-71
2024/01/25 00:05:47;;;;;;;35.25;5.32;;;8.70;99.90;;;;;;5064629;28;20033;-72
2024/01/25 00:08:14;;;;;;;30.27;5.22;;;8.60;99.90;;;;;;5065179;28;20497;-72
2024/01/25 00:10:39;;;;;;;36.90;7.30;;;8.60;99.90;;;;;;5064442;28;20028;-72
2024/01/25 00:13:05;;;;;;;26.92;5.43;;;8.50;99.90;;;;;;5065137;28;20020;-72
2024/01/25 00:15:30;;;;;;;34.08;6.18;;;8.50;99.90;;;;;;5064646;28;20028;-72
2024/01/25 00:17:56;;;;;;;35.10;6.75;;;8.50;99.90;;;;;;5064929;28;20403;-72
2024/01/25 00:20:22;;;;;;;27.50;5.28;;;8.40;99.90;;;;;;5064686;28;20127;-72
2024/01/25 00:22:48;;;;;;;27.70;6.55;;;8.40;99.90;;;;;;5065194;28;20558;-72
2024/01/25 00:25:14;;;;;;;29.55;5.50;;;8.30;99.90;;;;;;5064664;28;20033;-73
2024/01/25 00:27:39;;;;;;;27.30;4.85;;;8.30;99.90;;;;;;5066037;28;20036;-72
2024/01/25 00:30:06;;;;;;;23.25;4.53;;;8.30;99.90;;;;;;5068160;28;20040;-72
2024/01/25 00:32:31;;;;;;;29.65;5.15;;;8.20;99.90;;;;;;5068220;28;20389;-72
2024/01/25 00:34:57;;;;;;;24.50;5.75;;;8.20;99.90;;;;;;5068353;28;20020;-72
2024/01/25 00:37:23;;;;;;;31.45;6.07;;;8.20;99.90;;;;;;5068569;28;20028;-72
2024/01/25 00:39:49;;;;;;;25.95;5.07;;;8.20;99.90;;;;;;5068306;28;20078;-72
2024/01/25 00:42:16;;;;;;;28.50;5.18;;;8.10;99.90;;;;;;5068533;28;20139;-72
2024/01/25 00:44:42;;;;;;;28.75;5.22;;;8.10;99.90;;;;;;5067917;28;20047;-72
2024/01/25 00:47:08;;;;;;;26.13;4.72;;;8.10;99.90;;;;;;5068343;28;20025;-72
2024/01/25 00:49:35;;;;;;;29.42;4.82;;;8.10;99.90;;;;;;5067731;28;20435;-72
2024/01/25 00:52:03;;;;;;;28.33;5.85;;;8.00;99.90;;;;;;5068505;28;20482;-72
2024/01/25 00:54:29;;;;;;;29.00;5.57;;;8.00;99.90;;;;;;5067756;28;20012;-72
2024/01/25 00:56:55;;;;;;;29.67;5.07;;;8.00;99.90;;;;;;5068634;28;20029;-72
2024/01/25 00:59:21;;;;;;;29.80;5.13;;;7.90;99.90;;;;;;5068247;28;20029;-73
2024/01/25 01:01:48;;;;;;;27.60;4.57;;;7.90;99.90;;;;;;5068293;28;20033;-73
2024/01/25 01:04:14;;;;;;;30.65;5.32;;;7.90;99.90;;;;;;5067949;28;20020;-73
2024/01/25 01:06:40;;;;;;;23.90;4.20;;;7.90;99.90;;;;;;5068093;28;20028;-72
2024/01/25 01:09:06;;;;;;;28.38;4.85;;;7.80;99.90;;;;;;5067728;28;20058;-73
2024/01/25 01:11:31;;;;;;;26.80;5.25;;;7.80;99.90;;;;;;5067722;28;20052;-76
2024/01/25 01:13:57;;;;;;;23.00;4.97;;;7.70;99.90;;;;;;5068154;28;20035;-73
2024/01/25 01:16:23;;;;;;;25.17;4.70;;;7.70;99.90;;;;;;5067925;28;20052;-72
2024/01/25 01:18:48;;;;;;;27.02;4.50;;;7.70;99.90;;;;;;5067994;28;20052;-72
2024/01/25 01:21:14;;;;;;;24.52;5.28;;;7.60;99.90;;;;;;5067653;28;20036;-72
2024/01/25 01:23:39;;;;;;;28.02;4.70;;;7.50;99.90;;;;;;5067746;28;20059;-72
2024/01/25 01:26:05;;;;;;;30.55;5.32;;;7.50;99.90;;;;;;5067782;28;20127;-72
2024/01/25 01:28:31;;;;;;;28.38;6.07;;;7.40;99.90;;;;;;5067683;28;20035;-72
2024/01/25 01:30:57;;;;;;;20.98;4.00;;;7.40;99.90;;;;;;5067302;28;20504;-72
2024/01/25 01:33:22;;;;;;;27.20;4.63;;;7.40;99.90;;;;;;5067766;28;20071;-72
2024/01/25 01:35:48;;;;;;;27.90;6.30;;;7.30;99.90;;;;;;5066981;28;20012;-72
2024/01/25 01:38:14;;;;;;;27.17;5.07;;;7.30;99.90;;;;;;5067465;28;20024;-72
2024/01/25 01:40:40;;;;;;;29.88;5.97;;;7.30;99.90;;;;;;5058832;28;20128;-72
2024/01/25 01:43:06;;;;;;;31.67;4.65;;;7.20;99.90;;;;;;5067557;28;20139;-72
2024/01/25 01:45:31;;;;;;;32.05;5.07;;;7.20;99.90;;;;;;5066799;28;20044;-72
2024/01/25 01:47:58;;;;;;;27.75;4.95;;;7.20;99.90;;;;;;5067175;28;20032;-72
2024/01/25 01:50:24;;;;;;;29.35;5.38;;;7.20;99.90;;;;;;5066763;28;20044;-71
2024/01/25 01:52:51;;;;;;;24.17;4.78;;;7.10;99.90;;;;;;5067696;28;20032;-72
2024/01/25 01:55:17;;;;;;;23.58;3.95;;;7.10;99.90;;;;;;5067101;28;20060;-72
2024/01/25 01:57:44;;;;;;;22.92;4.15;;;7.10;99.90;;;;;;5067152;28;20359;-72
2024/01/25 02:00:10;;;;;;;34.72;5.65;;;7.10;99.90;;;;;;5066838;28;20024;-72
2024/01/25 02:02:36;;;;;;;28.52;5.75;;;7.10;99.90;;;;;;5067112;28;20101;-72
2024/01/25 02:05:02;;;;;;;24.98;4.38;;;7.10;99.90;;;;;;5066487;28;20584;-73
2024/01/25 02:07:30;;;;;;;31.48;5.45;;;7.10;99.90;;;;;;5066993;28;20020;-72
2024/01/25 02:09:55;;;;;;;32.70;6.45;;;7.10;99.90;;;;;;5066356;28;20016;-73
2024/01/25 02:12:21;;;;;;;26.58;6.25;;;7.10;99.90;;;;;;5067187;28;20082;-73
2024/01/25 02:14:47;;;;;;;36.35;5.00;;;7.00;99.90;;;;;;5065991;28;20522;-72
2024/01/25 02:17:12;;;;;;;32.03;5.88;;;7.00;99.90;;;;;;5067698;28;20024;-72
2024/01/25 02:19:38;;;;;;;27.02;5.30;;;7.00;99.90;;;;;;5066727;28;20074;-73
2024/01/25 02:22:05;;;;;;;24.27;4.93;;;7.00;99.90;;;;;;5067489;28;20029;-72
2024/01/25 02:24:31;;;;;;;35.20;6.00;;;7.00;99.90;;;;;;5066128;28;20024;-71
2024/01/25 02:26:56;;;;;;;25.02;4.90;;;7.00;99.90;;;;;;5048474;28;20508;-71
2024/01/25 02:29:22;;;;;;;21.25;5.05;;;6.90;99.90;;;;;;5066392;28;20024;-72
2024/01/25 02:31:48;;;;;;;31.52;5.78;;;6.90;99.90;;;;;;5066307;28;20013;-72
2024/01/25 02:34:14;;;;;;;33.95;6.70;;;6.90;99.90;;;;;;5066372;28;20361;-72
2024/01/25 02:36:39;;;;;;;34.92;5.43;;;6.90;99.90;;;;;;5066259;28;20306;-71
2024/01/25 02:39:05;;;;;;;34.00;5.82;;;6.90;99.90;;;;;;5067166;28;20131;-72
2024/01/25 02:41:32;;;;;;;29.48;5.80;;;6.90;99.90;;;;;;5065696;28;20040;-71
2024/01/25 02:43:58;;;;;;;39.17;6.78;;;6.80;99.90;;;;;;5066551;28;20013;-71
2024/01/25 02:46:23;;;;;;;33.60;5.28;;;6.80;99.90;;;;;;5065855;28;20455;-73
2024/01/25 02:48:49;;;;;;;30.42;5.82;;;6.80;99.90;;;;;;5066694;28;20032;-71
2024/01/25 02:51:15;;;;;;;42.63;6.07;;;6.80;99.90;;;;;;5064980;28;20393;-71
2024/01/25 02:53:41;;;;;;;31.95;4.70;;;6.80;99.90;;;;;;5066207;28;20024;-71
2024/01/25 02:56:07;;;;;;;35.47;5.13;;;6.70;99.90;;;;;;5065907;28;20063;-71
2024/01/25 02:58:33;;;;;;;31.58;5.25;;;6.70;99.90;;;;;;5066087;28;20595;-71
2024/01/25 03:00:58;;;;;;;35.22;5.68;;;6.70;99.90;;;;;;5065554;28;20047;-72
2024/01/25 03:03:24;;;;;;;28.85;5.32;;;6.70;99.90;;;;;;5066257;28;20039;-72
2024/01/25 03:05:52;;;;;;;28.85;5.47;;;6.70;99.90;;;;;;5065519;28;20052;-72
2024/01/25 03:08:17;;;;;;;34.85;6.10;;;6.70;99.90;;;;;;5065921;28;20024;-72
2024/01/25 03:10:43;;;;;;;30.45;5.45;;;6.70;99.90;;;;;;5065712;28;20031;-72
2024/01/25 03:13:09;;;;;;;29.08;6.05;;;6.70;99.90;;;;;;5065885;28;20509;-72
2024/01/25 03:15:34;;;;;;;35.45;5.53;;;6.70;99.90;;;;;;5065295;28;20523;-72
2024/01/25 03:18:00;;;;;;;28.27;6.00;;;6.60;99.90;;;;;;5065760;28;20138;-72
2024/01/25 03:20:26;;;;;;;30.88;4.82;;;6.60;99.90;;;;;;5065115;28;20020;-72
2024/01/25 03:22:52;;;;;;;29.45;5.68;;;6.60;99.90;;;;;;5065687;28;20433;-72
2024/01/25 03:25:17;;;;;;;27.02;4.75;;;6.60;99.90;;;;;;5065087;28;20033;-71
2024/01/25 03:27:43;;;;;;;32.28;5.47;;;6.60;99.90;;;;;;5065597;28;20475;-72
2024/01/25 03:30:09;;;;;;;26.45;5.10;;;6.60;99.90;;;;;;5065013;28;20565;-72
2024/01/25 03:32:36;;;;;;;23.38;4.80;;;6.50;99.90;;;;;;5065211;28;20016;-72
2024/01/25 03:35:01;;;;;;;31.25;5.20;;;6.50;99.90;;;;;;5065272;28;20464;-72
2024/01/25 03:37:27;;;;;;;31.23;4.63;;;6.60;99.90;;;;;;5065526;28;20067;-72
2024/01/25 03:39:53;;;;;;;28.27;4.63;;;6.50;99.90;;;;;;5064825;28;20031;-71
2024/01/25 03:42:18;;;;;;;23.98;4.75;;;6.50;99.90;;;;;;5065278;28;20045;-72
2024/01/25 03:44:44;;;;;;;31.20;5.72;;;6.50;99.90;;;;;;5064877;28;20028;-72
2024/01/25 03:47:10;;;;;;;24.17;5.60;;;6.50;99.90;;;;;;5064820;28;20032;-72
2024/01/25 03:49:36;;;;;;;28.33;4.20;;;6.50;99.90;;;;;;5065184;28;20021;-72
2024/01/25 03:52:03;;;;;;;31.75;5.50;;;6.40;99.90;;;;;;5065573;28;20385;-72
2024/01/25 03:54:29;;;;;;;29.73;5.30;;;6.40;99.90;;;;;;5064873;28;20016;-72
2024/01/25 03:56:55;;;;;;;33.65;5.75;;;6.40;99.90;;;;;;5065276;28;20165;-73
2024/01/25 03:59:20;;;;;;;31.55;5.13;;;6.30;99.90;;;;;;5065309;28;20424;-72
2024/01/25 04:01:47;;;;;;;31.73;4.70;;;6.30;99.90;;;;;;5066650;28;20020;-73
2024/01/25 04:04:15;;;;;;;29.38;4.68;;;6.30;99.90;;;;;;5069451;28;20498;-72
2024/01/25 04:06:48;;;;;;;29.55;5.38;;;6.30;99.90;;;;;;5055251;28;20138;-72
2024/01/25 04:09:15;;;;;;;38.58;6.15;;;6.30;99.90;;;;;;5069202;28;20101;-72
2024/01/25 04:11:41;;;;;;;23.95;5.13;;;6.30;99.90;;;;;;5068421;28;20406;-73
2024/01/25 04:14:06;;;;;;;28.33;4.50;;;6.20;99.90;;;;;;5069830;28;20385;-73
2024/01/25 04:16:33;;;;;;;32.70;4.95;;;6.10;99.90;;;;;;5068317;28;20059;-72
2024/01/25 04:18:59;;;;;;;28.48;4.47;;;6.10;99.90;;;;;;5069357;28;20435;-72
2024/01/25 04:21:25;;;;;;;33.58;6.53;;;6.10;99.90;;;;;;5068246;28;20024;-72
2024/01/25 04:23:50;;;;;;;31.02;4.75;;;6.10;99.90;;;;;;5068975;28;20017;-72
2024/01/25 04:26:16;;;;;;;28.45;5.15;;;6.10;99.90;;;;;;5068359;28;20067;-73
2024/01/25 04:28:42;;;;;;;39.25;5.53;;;6.10;99.90;;;;;;5068540;28;20023;-72
2024/01/25 04:31:08;;;;;;;28.77;4.82;;;6.00;99.90;;;;;;5068472;28;20025;-72
2024/01/25 04:33:33;;;;;;;29.15;5.38;;;6.00;99.90;;;;;;5068951;28;20024;-72
2024/01/25 04:35:59;;;;;;;30.70;5.85;;;6.00;99.90;;;;;;5068348;28;20111;-74
2024/01/25 04:38:25;;;;;;;29.42;5.55;;;6.00;99.90;;;;;;5068949;28;20115;-73
2024/01/25 04:40:51;;;;;;;36.60;5.68;;;5.90;99.90;;;;;;5068169;28;20067;-72
2024/01/25 04:43:16;;;;;;;27.80;5.18;;;6.00;99.90;;;;;;5068809;28;20042;-72
2024/01/25 04:45:42;;;;;;;33.33;5.03;;;5.90;99.90;;;;;;5067868;28;20044;-72
2024/01/25 04:48:08;;;;;;;33.38;6.65;;;5.90;99.90;;;;;;5068925;28;20028;-73
2024/01/25 04:50:33;;;;;;;32.95;4.75;;;5.90;99.90;;;;;;5067996;28;20030;-73
2024/01/25 04:53:02;;;;;;;35.10;4.78;;;5.90;99.90;;;;;;5068806;28;20017;-72
2024/01/25 04:55:27;;;;;;;32.90;5.25;;;5.90;99.90;;;;;;5068281;28;20025;-72
2024/01/25 04:57:53;;;;;;;38.75;5.53;;;5.90;99.90;;;;;;5068478;28;20023;-71
2024/01/25 05:00:21;;;;;;;34.05;5.72;;;5.90;99.90;;;;;;5068175;28;20427;-72
2024/01/25 05:02:47;;;;;;;30.83;4.93;;;5.90;99.90;;;;;;5068297;28;20025;-72
2024/01/25 05:05:13;;;;;;;26.80;4.85;;;5.90;99.90;;;;;;5067689;28;20039;-71
2024/01/25 05:07:38;;;;;;;29.80;4.82;;;5.90;99.90;;;;;;5068046;28;20045;-71
2024/01/25 05:10:04;;;;;;;32.35;4.63;;;5.90;99.90;;;;;;5068019;28;20116;-72
2024/01/25 05:12:30;;;;;;;38.22;5.22;;;5.90;99.90;;;;;;5067541;28;20020;-72
2024/01/25 05:14:56;;;;;;;42.10;5.90;;;5.90;99.90;;;;;;5067450;28;20196;-71
2024/01/25 05:17:21;;;;;;;33.42;5.10;;;5.90;99.90;;;;;;5067882;28;20443;-72
2024/01/25 05:19:47;;;;;;;31.02;5.50;;;5.80;99.90;;;;;;5067618;28;20031;-71
2024/01/25 05:22:13;;;;;;;35.88;5.97;;;5.80;99.90;;;;;;5067991;28;20024;-71
2024/01/25 05:24:38;;;;;;;33.50;5.53;;;5.70;99.90;;;;;;5068405;28;20013;-72
2024/01/25 05:27:04;;;;;;;31.80;5.53;;;5.70;99.90;;;;;;5067643;28;20020;-72
2024/01/25 05:29:30;;;;;;;40.33;5.30;;;5.60;99.90;;;;;;5065975;28;20017;-71
2024/01/25 05:31:55;;;;;;;33.63;4.65;;;5.60;99.90;;;;;;5067674;28;20019;-72
2024/01/25 05:34:21;;;;;;;29.20;5.30;;;5.60;99.90;;;;;;5068387;28;20028;-72
2024/01/25 05:36:47;;;;;;;36.67;6.20;;;5.60;99.90;;;;;;5067031;28;20025;-72
2024/01/25 05:39:13;;;;;;;38.08;5.70;;;5.60;99.90;;;;;;5067921;28;20111;-72
2024/01/25 05:41:39;;;;;;;26.95;5.20;;;5.60;99.90;;;;;;5066617;28;20123;-72
2024/01/25 05:44:05;;;;;;;33.97;5.22;;;5.60;99.90;;;;;;5067750;28;20033;-72
2024/01/25 05:46:30;;;;;;;39.08;5.38;;;5.60;99.90;;;;;;5066851;28;20035;-72
2024/01/25 05:48:56;;;;;;;39.55;5.25;;;5.60;99.90;;;;;;5067240;28;20043;-72
2024/01/25 05:51:22;;;;;;;41.10;5.68;;;5.50;99.90;;;;;;5067156;28;20032;-72
2024/01/25 05:53:47;;;;;;;28.20;5.00;;;5.50;99.90;;;;;;5067312;28;20028;-72
2024/01/25 05:56:13;;;;;;;29.65;5.20;;;5.50;99.90;;;;;;5067165;28;20393;-72
2024/01/25 05:58:38;;;;;;;36.03;5.15;;;5.60;99.90;;;;;;5067158;28;20405;-72
2024/01/25 06:01:04;;;;;;;27.92;4.88;;;5.50;99.90;;;;;;5066615;28;20024;-72
2024/01/25 06:03:30;;;;;;;32.05;5.20;;;5.50;99.90;;;;;;5067537;28;20028;-73
2024/01/25 06:05:55;;;;;;;28.02;4.55;;;5.50;99.90;;;;;;5066753;28;20040;-72
2024/01/25 06:08:21;;;;;;;31.60;5.82;;;5.50;99.90;;;;;;5067237;28;20142;-73
2024/01/25 06:10:47;;;;;;;34.90;5.90;;;5.50;99.90;;;;;;5066238;28;20060;-73
2024/01/25 06:13:13;;;;;;;33.20;6.22;;;5.50;99.90;;;;;;5067279;28;20062;-72
2024/01/25 06:15:39;;;;;;;30.45;5.75;;;5.40;99.90;;;;;;5066556;28;20503;-72
2024/01/25 06:18:05;;;;;;;35.75;6.22;;;5.40;99.90;;;;;;5067295;28;20496;-72
2024/01/25 06:20:30;;;;;;;29.92;4.97;;;5.40;99.90;;;;;;5066061;28;20028;-72
2024/01/25 06:22:56;;;;;;;32.35;6.35;;;5.40;99.90;;;;;;5066776;28;20147;-73
2024/01/25 06:25:22;;;;;;;36.33;5.38;;;5.30;99.90;;;;;;5052514;28;20059;-72
2024/01/25 06:27:48;;;;;;;41.45;5.68;;;5.30;99.90;;;;;;5066462;28;20409;-73
2024/01/25 06:30:14;;;;;;;36.28;6.80;;;5.40;99.90;;;;;;5066335;28;20059;-73
2024/01/25 06:32:40;;;;;;;25.67;5.90;;;5.40;99.90;;;;;;5066649;28;20016;-71
2024/01/25 06:35:06;;;;;;;36.15;7.50;;;5.30;99.90;;;;;;5066273;28;20028;-73
2024/01/25 06:37:32;;;;;;;31.30;5.80;;;5.40;99.90;;;;;;5066362;28;20055;-74
2024/01/25 06:39:58;;;;;;;37.08;5.78;;;5.30;99.90;;;;;;5065639;28;20473;-72
2024/01/25 06:42:24;;;;;;;35.15;5.90;;;5.30;99.90;;;;;;5065969;28;20051;-71
2024/01/25 06:44:49;;;;;;;30.40;4.82;;;5.30;99.90;;;;;;5064975;28;20033;-73
2024/01/25 06:47:15;;;;;;;32.22;5.65;;;5.30;99.90;;;;;;5047502;28;20054;-72
2024/01/25 06:49:41;;;;;;;36.17;5.07;;;5.30;99.90;;;;;;5058810;28;20025;-72
2024/01/25 06:52:06;;;;;;;32.40;4.93;;;5.30;99.90;;;;;;5065350;28;20478;-72
2024/01/25 06:54:32;;;;;;;30.67;4.93;;;5.30;99.90;;;;;;5051347;28;20458;-72
2024/01/25 06:56:58;;;;;;;36.03;5.38;;;5.30;99.90;;;;;;5046705;28;20024;-72
2024/01/25 06:59:23;;;;;;;25.90;4.97;;;5.30;99.90;;;;;;5061556;28;20029;-72
2024/01/25 07:01:52;;;;;;;34.10;5.55;;;5.30;99.90;;;;;;5061028;28;20070;-73
2024/01/25 07:04:18;;;;;;;31.73;6.07;;;5.30;99.90;;;;;;5062643;28;20033;-72
2024/01/25 07:06:44;;;;;;;32.58;5.57;;;5.30;99.90;;;;;;5059412;28;20183;-73
2024/01/25 07:09:09;;;;;;;28.77;4.80;;;5.30;99.90;;;;;;5058836;28;20074;-73
2024/01/25 07:11:35;;;;;;;32.35;5.32;;;5.30;99.90;;;;;;5052353;28;20494;-72
2024/01/25 07:14:01;;;;;;;29.08;5.28;;;5.30;99.90;;;;;;5055680;28;20028;-72
2024/01/25 07:16:26;;;;;;;30.90;4.80;;;5.30;99.90;;;;;;5061315;28;20166;-72
2024/01/25 07:18:52;;;;;;;32.13;6.72;;;5.30;99.90;;;;;;5066051;28;20035;-72
2024/01/25 07:21:17;;;;;;;29.80;5.75;;;5.30;99.90;;;;;;5060163;28;20020;-72
2024/01/25 07:23:43;;;;;;;29.02;5.18;;;5.30;99.90;;;;;;5059397;28;20048;-73
2024/01/25 07:26:08;;;;;;;29.73;5.22;;;5.30;99.90;;;;;;5060616;28;20028;-72
2024/01/25 07:28:34;;;;;;;31.02;6.70;;;5.20;99.90;;;;;;5057475;28;20024;-73
2024/01/25 07:31:00;;;;;;;29.25;6.25;;;5.20;99.90;;;;;;5065178;28;20020;-72
2024/01/25 07:33:25;;;;;;;25.33;5.07;;;5.20;99.90;;;;;;5052815;28;20104;-73
2024/01/25 07:35:51;;;;;;;29.35;5.80;;;5.20;99.90;;;;;;5061923;28;20026;-72
2024/01/25 07:38:17;;;;;;;28.88;5.82;;;5.10;99.90;;;;;;5058281;28;20047;-72
2024/01/25 07:40:43;;;;;;;34.40;5.75;;;5.10;99.90;;;;;;5064303;28;20039;-72
2024/01/25 07:43:08;;;;;;;28.98;5.05;;;5.20;99.90;;;;;;5065535;28;20123;-72
2024/01/25 07:45:34;;;;;;;31.85;5.13;;;5.10;99.90;;;;;;5061548;28;20379;-72
2024/01/25 07:47:59;;;;;;;27.85;4.97;;;5.10;99.90;;;;;;5059899;28;20477;-72
2024/01/25 07:50:25;;;;;;;29.02;5.90;;;5.10;99.90;;;;;;5048604;28;20111;-72
2024/01/25 07:52:51;;;;;;;30.92;5.25;;;5.10;99.90;;;;;;5061907;28;20052;-73
2024/01/25 07:55:17;;;;;;;30.10;5.85;;;5.10;99.90;;;;;;5063505;28;20036;-72
2024/01/25 07:57:42;;;;;;;34.08;6.45;;;5.10;99.90;;;;;;5063590;28;20028;-73
2024/01/25 08:00:08;;;;;;;25.70;5.25;;;5.10;99.90;;;;;;5063639;28;20024;-72
2024/01/25 08:02:35;;;;;;;32.83;6.95;;;5.00;99.90;;;;;;5062825;28;20314;-72
2024/01/25 08:05:01;;;;;;;29.55;5.68;;;5.10;99.90;;;;;;5063459;28;20539;-72
2024/01/25 08:07:28;;;;;;;30.85;6.05;;;5.10;99.90;;;;;;5064858;28;20106;-73
2024/01/25 08:09:57;;;;;;;27.45;5.13;;;5.10;99.90;;;;;;5065555;28;20352;-74
2024/01/25 08:12:24;;;;;;;30.17;5.10;;;5.10;99.90;;;;;;5064688;28;20060;-72
2024/01/25 08:14:49;;;;;;;36.92;6.38;;;5.10;99.90;;;;;;5065063;28;20021;-72
2024/01/25 08:17:15;;;;;;;28.67;4.88;;;5.10;99.90;;;;;;5065005;28;20028;-72
2024/01/25 08:19:40;;;;;;;29.95;5.65;;;5.10;99.90;;;;;;5065123;28;20766;-72
2024/01/25 08:22:06;;;;;;;26.50;5.60;;;5.10;99.90;;;;;;5064659;28;20611;-72
2024/01/25 08:24:32;;;;;;;28.02;5.10;;;5.10;99.90;;;;;;5064914;28;20036;-72
2024/01/25 08:26:57;;;;;;;32.78;5.15;;;5.10;99.90;;;;;;5064611;28;20016;-72
2024/01/25 08:29:23;;;;;;;31.52;4.93;;;5.10;99.90;;;;;;5064966;28;20492;-73
2024/01/25 08:31:49;;;;;;;30.15;5.10;;;5.10;99.90;;;;;;5064664;28;20488;-72
2024/01/25 08:34:14;;;;;;;29.38;5.22;;;5.20;99.90;;;;;;5065192;28;20029;-72
2024/01/25 08:36:40;;;;;;;20.90;5.00;;;5.20;99.90;;;;;;5062941;28;20025;-73
2024/01/25 08:39:08;;;;;;;28.38;6.07;;;5.20;99.90;;;;;;5065495;28;20500;-72
2024/01/25 08:41:34;;;;;;;29.02;5.72;;;5.20;99.90;;;;;;5060268;28;20047;-73
2024/01/25 08:44:00;;;;;;;32.78;5.25;;;5.10;99.90;;;;;;5061014;28;20036;-73
2024/01/25 08:46:26;;;;;;;37.53;7.10;;;5.10;99.90;;;;;;5056753;28;20032;-72
2024/01/25 08:48:51;;;;;;;25.30;4.78;;;5.10;99.90;;;;;;5059844;28;20029;-72
2024/01/25 08:51:17;;;;;;;29.48;4.65;;;5.10;99.90;;;;;;5059882;28;20016;-72
2024/01/25 08:53:43;;;;;;;38.33;6.45;;;5.10;99.90;;;;;;5068712;28;20036;-76
2024/01/25 08:56:09;;;;;;;37.28;6.50;;;5.10;99.90;;;;;;5067681;28;20044;-72
2024/01/25 08:58:35;;;;;;;47.03;5.55;;;5.20;99.90;;;;;;5068034;28;20032;-72
2024/01/25 09:01:01;;;;;;;32.63;4.72;;;5.20;99.90;;;;;;5061613;28;20394;-73
2024/01/25 09:03:26;;;;;;;38.63;5.90;;;5.20;99.90;;;;;;5050072;28;20473;-73
2024/01/25 09:05:52;;;;;;;28.35;6.00;;;5.20;99.90;;;;;;5068099;28;20032;-72
2024/01/25 09:08:18;;;;;;;25.70;5.75;;;5.30;99.90;;;;;;5068282;28;20029;-72
2024/01/25 09:10:44;;;;;;;34.00;7.93;;;5.30;99.90;;;;;;5067869;28;20044;-72
2024/01/25 09:13:10;;;;;;;44.40;6.72;;;5.40;99.90;;;;;;5068012;28;20024;-73
2024/01/25 09:15:37;;;;;;;37.00;6.40;;;5.40;99.90;;;;;;5067764;28;20067;-73
2024/01/25 09:18:03;;;;;;;32.72;6.07;;;5.50;99.90;;;;;;5066370;28;20087;-72
2024/01/25 09:20:29;;;;;;;28.27;7.20;;;5.50;99.90;;;;;;5062240;28;20036;-72
2024/01/25 09:22:55;;;;;;;33.33;7.30;;;5.60;99.90;;;;;;5067726;28;20039;-73
2024/01/25 09:25:20;;;;;;;42.15;7.30;;;5.70;99.90;;;;;;5049429;28;20094;-74
2024/01/25 09:27:46;;;;;;;37.78;6.65;;;5.70;99.90;;;;;;5067006;28;20033;-72
2024/01/25 09:30:12;;;;;;;36.50;6.30;;;5.70;99.90;;;;;;5066514;28;20103;-72
2024/01/25 09:32:37;;;;;;;31.05;6.03;;;5.80;99.90;;;;;;5067252;28;20437;-72
2024/01/25 09:35:03;;;;;;;34.33;7.05;;;5.80;99.90;;;;;;5067579;28;20024;-72
2024/01/25 09:37:29;;;;;;;36.13;7.03;;;5.90;99.90;;;;;;5067669;28;20094;-72
2024/01/25 09:39:55;;;;;;;28.85;5.82;;;5.90;99.90;;;;;;5067839;28;20021;-73
2024/01/25 09:42:20;;;;;;;35.25;7.20;;;6.00;99.90;;;;;;5066162;28;20467;-73
2024/01/25 09:44:46;;;;;;;36.03;6.50;;;6.00;99.90;;;;;;5065629;28;20037;-73
2024/01/25 09:47:13;;;;;;;38.72;7.55;;;6.10;99.90;;;;;;5065448;28;20509;-72
2024/01/25 09:49:39;;;;;;;41.72;8.55;;;6.10;99.90;;;;;;5051746;28;20027;-73
2024/01/25 09:52:05;;;;;;;46.60;6.90;;;6.20;99.90;;;;;;5065263;28;20021;-72
2024/01/25 09:54:40;;;;;;;43.90;7.60;;;6.20;99.90;;;;;;5047368;28;20028;-72
2024/01/25 09:57:17;;;;;;;36.05;7.47;;;6.20;99.90;;;;;;5065392;28;20012;-73
2024/01/25 09:59:43;;;;;;;40.10;8.00;;;6.30;99.90;;;;;;5067198;28;20024;-72
2024/01/25 10:02:10;;;;;;;38.45;9.50;;;6.30;99.90;;;;;;5066904;28;20397;-73
2024/01/25 10:04:35;;;;;;;44.50;7.28;;;6.40;99.90;;;;;;5067122;28;20500;-73
2024/01/25 10:07:01;;;;;;;39.47;7.35;;;6.30;99.90;;;;;;5066953;28;20016;-72
2024/01/25 10:09:27;;;;;;;40.70;7.43;;;6.40;99.90;;;;;;5066891;28;20137;-72
2024/01/25 10:11:52;;;;;;;35.42;7.70;;;6.50;99.90;;;;;;5066187;28;20025;-72
2024/01/25 10:14:18;;;;;;;36.28;7.82;;;6.50;99.90;;;;;;5067049;28;20385;-72
2024/01/25 10:16:45;;;;;;;37.30;7.50;;;6.60;99.90;;;;;;5066310;28;20024;-72
2024/01/25 10:19:12;;;;;;;39.70;8.15;;;6.70;99.90;;;;;;5067149;28;20048;-72
2024/01/25 10:21:40;;;;;;;42.65;8.25;;;6.70;99.90;;;;;;5066194;28;20047;-72
2024/01/25 10:24:06;;;;;;;37.47;8.13;;;6.80;99.90;;;;;;5067116;28;20021;-71
2024/01/25 10:26:34;;;;;;;46.72;8.20;;;6.80;99.90;;;;;;5065759;28;20031;-72
2024/01/25 10:29:01;;;;;;;43.33;7.72;;;6.90;99.90;;;;;;5066740;28;20021;-72
2024/01/25 10:31:28;;;;;;;35.00;6.90;;;6.90;99.90;;;;;;5065995;28;20078;-72
2024/01/25 10:33:55;;;;;;;36.45;8.80;;;7.00;99.90;;;;;;5054676;28;20020;-72
2024/01/25 10:36:21;;;;;;;29.00;6.47;;;7.00;99.90;;;;;;5057475;28;20144;-72
2024/01/25 10:38:50;;;;;;;36.88;7.90;;;7.10;99.90;;;;;;5038666;28;20024;-72
2024/01/25 10:41:17;;;;;;;37.17;8.23;;;7.10;99.90;;;;;;5056220;28;20128;-73
2024/01/25 10:43:42;;;;;;;36.55;7.65;;;7.20;99.90;;;;;;5062731;28;20028;-72
2024/01/25 10:46:08;;;;;;;39.30;8.52;;;7.30;99.90;;;;;;5050108;28;20044;-72
2024/01/25 10:48:34;;;;;;;34.88;7.72;;;7.40;99.90;;;;;;5060830;28;20167;-72
2024/01/25 10:51:02;;;;;;;41.83;10.27;;;7.40;99.90;;;;;;5065558;28;20115;-72
2024/01/25 10:53:32;;;;;;;30.67;8.50;;;7.50;99.90;;;;;;5058519;28;20017;-72
2024/01/25 10:55:57;;;;;;;40.38;8.65;;;7.60;99.90;;;;;;5055212;28;20025;-72
2024/01/25 10:58:23;;;;;;;37.75;8.20;;;7.60;99.90;;;;;;5055280;28;20035;-72
2024/01/25 11:00:55;;;;;;;34.67;8.35;;;7.70;99.90;;;;;;5050782;28;20387;-73
2024/01/25 11:03:25;;;;;;;31.83;8.27;;;7.70;99.90;;;;;;5063169;28;20020;-72
2024/01/25 11:05:52;;;;;;;31.67;8.00;;;7.70;99.90;;;;;;5054660;28;20013;-72
2024/01/25 11:08:19;;;;;;;30.15;8.43;;;7.80;99.90;;;;;;5054651;28;20039;-73
2024/01/25 11:10:52;;;;;;;35.58;10.02;;;7.80;99.90;;;;;;5056424;28;20037;-72
2024/01/25 11:13:24;;;;;;;31.20;8.38;;;7.90;99.90;;;;;;5063806;28;20178;-72
2024/01/25 11:15:49;;;;;;;39.63;9.82;;;7.90;99.90;;;;;;5060164;28;20549;-72
2024/01/25 11:18:16;;;;;;;32.17;8.13;;;8.00;99.90;;;;;;5052788;28;20095;-73
2024/01/25 11:20:41;;;;;;;42.72;8.93;;;8.00;99.90;;;;;;5055113;28;20023;-72
2024/01/25 11:23:09;;;;;;;38.03;9.50;;;8.10;99.90;;;;;;5052330;28;20025;-72
2024/01/25 11:25:36;;;;;;;38.33;9.73;;;8.10;99.90;;;;;;5065572;28;20516;-72
2024/01/25 11:28:03;;;;;;;33.50;7.85;;;8.10;99.90;;;;;;5063040;28;20531;-74
2024/01/25 11:30:34;;;;;;;38.70;8.98;;;8.10;99.90;;;;;;5065510;28;20012;-73
2024/01/25 11:33:00;;;;;;;49.13;10.32;;;8.20;99.90;;;;;;5061814;28;20432;-73
2024/01/25 11:35:27;;;;;;;32.80;9.02;;;8.20;99.90;;;;;;5047077;28;20575;-73
2024/01/25 11:37:53;;;;;;;39.17;10.50;;;8.20;99.90;;;;;;5065566;28;20020;-73
2024/01/25 11:40:20;;;;;;;38.30;10.02;;;8.30;99.90;;;;;;5064124;28;20557;-73
2024/01/25 11:42:48;;;;;;;35.25;9.65;;;8.30;99.90;;;;;;5055922;28;20067;-72
2024/01/25 11:45:14;;;;;;;38.80;10.65;;;8.30;99.90;;;;;;5065415;28;20155;-73
2024/01/25 11:47:42;;;;;;;36.25;9.50;;;8.40;99.90;;;;;;5064488;28;20108;-73
2024/01/25 11:50:09;;;;;;;35.67;9.65;;;8.50;99.90;;;;;;5041978;28;20048;-72
2024/01/25 11:52:35;;;;;;;36.45;9.35;;;8.50;99.90;;;;;;5060654;28;20482;-72
2024/01/25 11:55:08;;;;;;;37.53;9.82;;;8.50;99.90;;;;;;5054304;28;20386;-71
2024/01/25 11:57:40;;;;;;;35.60;10.35;;;8.60;99.90;;;;;;5063984;28;20330;-72
2024/01/25 12:00:09;;;;;;;36.42;8.70;;;8.50;99.90;;;;;;5053518;28;20024;-72
2024/01/25 12:02:36;;;;;;;37.72;9.60;;;8.50;99.90;;;;;;5061288;28;20033;-71
2024/01/25 12:05:02;;;;;;;38.28;8.85;;;8.50;99.90;;;;;;5064766;28;20028;-72
2024/01/25 12:07:30;;;;;;;41.28;9.95;;;8.50;99.90;;;;;;5045868;28;20021;-72
2024/01/25 12:09:59;;;;;;;30.88;8.63;;;8.50;99.90;;;;;;5051758;28;20043;-72
2024/01/25 12:12:24;;;;;;;34.45;9.40;;;8.60;99.90;;;;;;5047854;28;20037;-72
2024/01/25 12:14:52;;;;;;;35.20;9.15;;;8.60;99.90;;;;;;5051251;28;20378;-73
2024/01/25 12:17:17;;;;;;;38.13;9.63;;;8.60;99.90;;;;;;5064664;28;20307;-72
2024/01/25 12:19:43;;;;;;;45.50;11.82;;;8.50;99.90;;;;;;5064941;28;20520;-72
2024/01/25 12:22:09;;;;;;;49.70;9.80;;;8.50;99.90;;;;;;5065066;28;20032;-72
2024/01/25 12:24:35;;;;;;;43.00;10.32;;;8.60;99.90;;;;;;5065366;28;20024;-73
2024/01/25 12:27:00;;;;;;;39.65;9.18;;;8.60;99.90;;;;;;5067478;28;20417;-72
2024/01/25 12:29:26;;;;;;;41.72;9.95;;;8.50;99.90;;;;;;5067690;28;20033;-73
2024/01/25 12:31:52;;;;;;;32.78;9.05;;;8.60;99.90;;;;;;5066896;28;20035;-73
2024/01/25 12:34:17;;;;;;;34.03;9.38;;;8.60;99.90;;;;;;5067719;28;20474;-72
2024/01/25 12:36:43;;;;;;;48.95;10.23;;;8.70;99.90;;;;;;5066751;28;20020;-72
2024/01/25 12:39:09;;;;;;;37.25;9.32;;;8.70;99.90;;;;;;5049701;28;20172;-72